Brevard, North Carolina
Current Conditions -  °F | °C
As of 7:54 PM on Friday 19 Dec 2014 (Local Time) from KAVL Reporting Station
Clear Clear  
Wind Chill: 35°   Ceiling: Unl
Heat Index: 42°   Visibility: 10mi
Dew Point: 26°   Wind: 14mph
Humidity: 53%   Direction: 340°NNW
Pressure: 30.15"   Gusts: NA
Location:  35.23°N, 82.73°W
Report Text: KAVL 200054Z 34012KT 10SM CLR 06/M03 A3015 RMK AO2 SLP214 T00561033
Loading
Personal Weather Stations






























Interactive Weather Map New forecast layout! Learn more

10-Day Weather Forecast

Advertisements
Track Severe Weather on mobile